KOLV/OLV METAR and TAF weather

Enter ICAO airport designator
Station Type Date Time Source
KOLV METAR 2022/06/28 23:50 UTC NOAA

KOLV 282350Z 04009KT 10SM CLR 28/13 A3011


Station Type Date Time Source
KOLV Decoded METAR 2022/06/28 23:50 UTC NOAA

Olive Branch, Olive Branch Airport, MS, United States (KOLV) 34-58-44N 089-47-13W
Jun 28, 2022 - 07:50 PM EDT / 2022.06.28 2350 UTC
Wind: from the NE (040 degrees) at 10 MPH (9 KT):0
Visibility: 10 mile(s):0
Sky conditions: clear
Temperature: 82 F (28 C)
Dew Point: 55 F (13 C)
Relative Humidity: 39%
Pressure (altimeter): 30.11 in. Hg (1019 hPa)
ob: KOLV 282350Z 04009KT 10SM CLR 28/13 A3011
cycle: 0

Station Type Date Time Source
KOLV TAF UTC NOAA

Error!

Example: see airport list